Cincinnati, Ohio
Traffic Map
Current Weather Conditions
Cincinnati, Ohio
Overcast Haze
Overcast

Feels Like: 5°
Wind Chill: Ceiling: 800
Heat Index: Visibility: 4mi
Dew Point: Wind: 8mph
Humidity: 93% Direction: 200° (SSW)
Pressure: 30.12in Gusts: 0mph
Raw Report DataKLUK 181453Z 20007KT 4SM BR OVC008 07/06 A3012 RMK AO2 SLP202 T00720061 53004
Traffic Incident Summary
Active as of:
Severity:
Category:
InformationThere was an issue retrieving the traffic information for this location. Please try a different location or try again shortly.
Advertisements